Time;durP1;ratioP1;P1;durP2;ratioP2;P2;SDS_P1;SDS_P2;PMS_P1;PMS_P2;Temp;Humidity;BMP_temperature;BMP_pressure;BME280_temperature;BME280_humidity;BME280_pressure;Samples;Min_cycle;Max_cycle;Signal;HPM_P1;HPM_P2
2023/07/17 00:00:24;;;;;;;10.17;4.20;;;20.80;69.50;;;;;;5022945;28;20307;-77
2023/07/17 00:02:50;;;;;;;9.07;4.10;;;20.70;69.70;;;;;;5023997;28;20449;-78
2023/07/17 00:05:16;;;;;;;8.97;3.60;;;20.70;69.70;;;;;;5029004;28;20902;-79
2023/07/17 00:07:42;;;;;;;9.40;3.97;;;20.70;69.70;;;;;;5028378;28;20202;-78
2023/07/17 00:10:11;;;;;;;8.23;3.80;;;20.70;69.70;;;;;;5022486;28;20533;-78
2023/07/17 00:12:38;;;;;;;10.27;4.43;;;20.80;69.20;;;;;;5023981;28;20192;-79
2023/07/17 00:15:07;;;;;;;6.93;3.43;;;20.80;69.40;;;;;;5024960;28;20489;-77
2023/07/17 00:17:33;;;;;;;8.83;3.80;;;20.80;69.50;;;;;;5030323;28;20426;-77
2023/07/17 00:20:00;;;;;;;6.10;3.67;;;20.80;69.50;;;;;;5027384;28;20456;-78
2023/07/17 00:22:25;;;;;;;8.40;3.60;;;20.80;69.70;;;;;;5034369;28;20459;-78
2023/07/17 00:24:52;;;;;;;5.57;3.70;;;20.80;69.20;;;;;;5032237;28;20470;-78
2023/07/17 00:27:19;;;;;;;7.73;4.00;;;20.80;69.40;;;;;;5027143;28;20195;-78
2023/07/17 00:29:44;;;;;;;5.53;3.10;;;20.90;69.70;;;;;;5024974;28;20439;-77
2023/07/17 00:32:13;;;;;;;10.17;3.87;;;20.90;69.70;;;;;;5026110;28;20563;-79
2023/07/17 00:34:42;;;;;;;6.63;3.90;;;20.80;69.70;;;;;;5019314;28;20233;-77
2023/07/17 00:37:08;;;;;;;7.27;3.57;;;20.80;69.80;;;;;;5023001;28;20433;-79
2023/07/17 00:39:34;;;;;;;7.73;3.83;;;20.80;69.80;;;;;;5015054;28;20790;-80
2023/07/17 00:42:01;;;;;;;6.43;3.50;;;20.70;69.70;;;;;;5017528;28;20979;-78
2023/07/17 00:44:27;;;;;;;5.40;3.77;;;20.70;69.70;;;;;;5018022;28;20433;-77
2023/07/17 00:46:54;;;;;;;13.63;3.70;;;20.80;69.40;;;;;;5026032;28;20470;-77
2023/07/17 00:49:23;;;;;;;6.77;3.93;;;20.80;69.50;;;;;;5031026;28;20466;-78
2023/07/17 00:51:51;;;;;;;7.97;3.90;;;20.80;69.70;;;;;;5028299;28;20473;-78
2023/07/17 00:54:18;;;;;;;6.27;3.60;;;20.80;69.70;;;;;;5014680;28;21021;-77
2023/07/17 00:56:46;;;;;;;12.40;3.43;;;20.80;69.40;;;;;;5020000;28;20417;-77
2023/07/17 00:59:13;;;;;;;7.43;3.90;;;20.80;69.50;;;;;;5019988;28;20541;-78
2023/07/17 01:01:40;;;;;;;5.90;3.47;;;20.80;69.50;;;;;;5013309;28;20486;-79
2023/07/17 01:04:06;;;;;;;7.07;4.00;;;20.80;69.40;;;;;;5018659;28;20424;-78
2023/07/17 01:06:32;;;;;;;6.87;3.47;;;20.80;69.50;;;;;;5018778;28;20446;-78
2023/07/17 01:09:00;;;;;;;5.80;3.30;;;20.80;69.70;;;;;;5024464;28;20434;-78
2023/07/17 01:11:26;;;;;;;8.30;3.50;;;20.80;69.40;;;;;;5019535;28;20222;-77
2023/07/17 01:13:52;;;;;;;5.37;3.57;;;20.90;69.20;;;;;;5022367;28;20803;-76
2023/07/17 01:16:17;;;;;;;7.60;3.53;;;20.90;68.90;;;;;;5016796;28;20196;-78
2023/07/17 01:18:43;;;;;;;9.93;3.93;;;20.80;69.20;;;;;;5018170;28;20190;-78
2023/07/17 01:21:12;;;;;;;8.67;3.57;;;20.80;69.40;;;;;;5013063;28;20222;-77
2023/07/17 01:23:38;;;;;;;7.83;3.00;;;20.80;69.50;;;;;;5014987;28;20430;-76
2023/07/17 01:26:15;;;;;;;5.13;3.60;;;20.80;69.20;;;;;;5018712;28;20589;-78
2023/07/17 01:28:42;;;;;;;5.13;2.93;;;20.80;69.10;;;;;;5021522;28;20435;-78
2023/07/17 01:31:08;;;;;;;8.53;4.03;;;20.90;69.10;;;;;;5017531;28;20474;-77
2023/07/17 01:33:34;;;;;;;5.17;2.73;;;21.00;68.60;;;;;;5017597;28;20481;-78
2023/07/17 01:36:00;;;;;;;5.00;3.10;;;21.00;68.80;;;;;;5019294;28;20520;-78
2023/07/17 01:38:26;;;;;;;9.27;3.40;;;21.10;69.10;;;;;;5019281;28;20431;-78
2023/07/17 01:40:53;;;;;;;5.30;2.90;;;21.10;69.20;;;;;;5017583;28;20540;-79
2023/07/17 01:43:18;;;;;;;8.20;3.70;;;21.10;69.70;;;;;;5020191;28;20198;-78
2023/07/17 01:45:44;;;;;;;9.60;3.87;;;21.20;69.50;;;;;;5019144;28;20443;-78
2023/07/17 01:48:10;;;;;;;8.43;3.63;;;21.20;69.50;;;;;;5019067;28;20257;-79
2023/07/17 01:50:36;;;;;;;7.53;3.27;;;21.20;69.80;;;;;;5017057;28;20227;-78
2023/07/17 01:53:01;;;;;;;5.63;3.50;;;21.10;69.80;;;;;;5022816;28;20183;-78
2023/07/17 01:55:27;;;;;;;8.10;3.47;;;21.00;69.90;;;;;;5025799;28;20222;-77
2023/07/17 01:57:56;;;;;;;6.60;3.27;;;20.80;70.20;;;;;;5025890;28;20193;-78
2023/07/17 02:00:22;;;;;;;6.93;3.47;;;20.70;70.40;;;;;;5027860;28;20230;-77
2023/07/17 02:02:47;;;;;;;10.17;3.70;;;20.60;70.50;;;;;;5029945;28;20475;-78
2023/07/17 02:05:13;;;;;;;7.73;3.30;;;20.60;70.40;;;;;;5021465;28;20445;-78
2023/07/17 02:07:38;;;;;;;5.23;3.50;;;20.60;70.80;;;;;;5018998;28;20193;-77
2023/07/17 02:10:04;;;;;;;6.40;3.70;;;20.60;71.10;;;;;;5013729;28;20692;-79
2023/07/17 02:12:30;;;;;;;8.23;4.03;;;20.60;71.80;;;;;;5015436;28;20569;-79
2023/07/17 02:14:55;;;;;;;6.20;3.50;;;20.50;71.30;;;;;;5014284;28;20218;-78
2023/07/17 02:17:21;;;;;;;7.50;3.67;;;20.70;71.00;;;;;;5015632;28;20187;-78
2023/07/17 02:19:47;;;;;;;9.20;3.10;;;20.80;70.50;;;;;;5012095;28;20343;-79
2023/07/17 02:22:13;;;;;;;10.13;3.20;;;20.80;71.00;;;;;;5016021;28;20179;-79
2023/07/17 02:24:38;;;;;;;7.67;2.90;;;20.80;71.30;;;;;;5016246;28;20202;-79
2023/07/17 02:27:04;;;;;;;7.07;3.47;;;20.90;70.50;;;;;;5015131;28;20195;-79
2023/07/17 02:29:30;;;;;;;6.60;3.20;;;20.90;70.50;;;;;;5015496;28;20204;-78
2023/07/17 02:31:55;;;;;;;7.53;4.00;;;20.90;70.40;;;;;;5009699;28;20271;-77
2023/07/17 02:34:21;;;;;;;6.30;2.70;;;20.90;70.70;;;;;;5019038;28;20706;-78
2023/07/17 02:36:47;;;;;;;5.87;3.60;;;20.90;69.90;;;;;;5026529;28;20183;-78
2023/07/17 02:39:13;;;;;;;6.20;3.03;;;20.90;69.90;;;;;;5027787;28;20191;-78
2023/07/17 02:41:38;;;;;;;6.47;3.30;;;21.00;69.50;;;;;;5010873;28;20475;-79
2023/07/17 02:44:04;;;;;;;5.03;3.30;;;20.90;69.50;;;;;;5015354;28;20195;-79
2023/07/17 02:46:29;;;;;;;5.63;3.00;;;20.90;69.70;;;;;;5015404;28;20204;-79
2023/07/17 02:48:55;;;;;;;5.20;2.70;;;20.90;69.80;;;;;;5017280;28;20273;-78
2023/07/17 02:51:21;;;;;;;8.00;3.53;;;21.00;69.80;;;;;;5011971;28;20261;-78
2023/07/17 02:53:47;;;;;;;6.83;3.10;;;21.00;69.90;;;;;;5011922;28;20192;-79
2023/07/17 02:56:13;;;;;;;5.37;3.17;;;21.00;69.90;;;;;;5019784;28;20439;-78
2023/07/17 02:58:48;;;;;;;14.77;3.50;;;21.00;69.90;;;;;;5018819;28;20191;-79
2023/07/17 03:01:15;;;;;;;5.80;2.90;;;21.00;69.80;;;;;;5005986;28;20229;-79
2023/07/17 03:03:40;;;;;;;6.00;3.17;;;21.00;69.70;;;;;;5011345;28;20431;-79
2023/07/17 03:06:06;;;;;;;5.03;2.80;;;21.00;69.40;;;;;;5020302;28;21239;-79
2023/07/17 03:08:32;;;;;;;4.97;3.50;;;21.00;69.50;;;;;;5021226;28;20196;-78
2023/07/17 03:11:01;;;;;;;7.00;3.10;;;21.00;69.50;;;;;;5016520;28;20293;-79
2023/07/17 03:13:27;;;;;;;4.53;3.23;;;21.00;69.50;;;;;;5013102;28;20315;-78
2023/07/17 03:15:55;;;;;;;6.53;3.37;;;20.90;69.40;;;;;;5015714;28;20623;-78
2023/07/17 03:18:21;;;;;;;7.87;3.40;;;20.90;69.40;;;;;;5015835;28;20196;-78
2023/07/17 03:20:47;;;;;;;8.17;3.30;;;20.90;69.50;;;;;;5012427;28;20474;-78
2023/07/17 03:23:12;;;;;;;9.73;3.70;;;20.90;69.20;;;;;;5011814;28;20179;-78
2023/07/17 03:25:41;;;;;;;5.40;3.20;;;20.90;68.80;;;;;;5013697;28;20210;-79
2023/07/17 03:28:07;;;;;;;8.20;3.40;;;20.90;69.80;;;;;;5014641;28;20534;-77
2023/07/17 03:30:32;;;;;;;6.70;2.90;;;20.80;69.90;;;;;;5014759;28;20500;-79
2023/07/17 03:32:58;;;;;;;6.47;3.60;;;20.70;70.10;;;;;;5018813;28;20262;-78
2023/07/17 03:35:24;;;;;;;8.50;3.60;;;20.60;69.90;;;;;;5019305;28;20249;-79
2023/07/17 03:37:50;;;;;;;7.50;3.40;;;20.60;70.40;;;;;;5021633;28;20241;-78
2023/07/17 03:40:15;;;;;;;6.30;3.80;;;20.50;70.50;;;;;;5019028;28;20207;-78
2023/07/17 03:42:41;;;;;;;8.90;3.07;;;20.50;70.70;;;;;;5021586;28;20419;-78
2023/07/17 03:45:07;;;;;;;6.17;3.47;;;20.60;70.10;;;;;;5021082;28;20188;-79
2023/07/17 03:47:32;;;;;;;4.63;3.17;;;20.60;69.90;;;;;;5020406;28;20194;-78
2023/07/17 03:49:58;;;;;;;7.97;3.93;;;20.70;69.50;;;;;;5018403;28;22179;-78
2023/07/17 03:52:24;;;;;;;6.60;3.87;;;20.70;69.50;;;;;;5021276;28;20191;-78
2023/07/17 03:54:49;;;;;;;11.67;3.80;;;20.60;69.90;;;;;;5023483;28;20225;-78
2023/07/17 03:57:15;;;;;;;6.23;3.60;;;20.70;70.10;;;;;;5018490;28;20191;-77
2023/07/17 03:59:54;;;;;;;5.87;3.30;;;20.70;69.90;;;;;;5015565;28;20215;-79
2023/07/17 04:02:21;;;;;;;6.60;3.47;;;20.60;70.20;;;;;;5015383;28;20602;-77
2023/07/17 04:04:47;;;;;;;4.67;3.50;;;20.40;70.50;;;;;;5016165;28;20449;-77
2023/07/17 04:07:13;;;;;;;5.17;3.40;;;20.30;70.70;;;;;;5016577;28;20440;-78
2023/07/17 04:09:39;;;;;;;6.90;3.60;;;20.30;70.70;;;;;;5007140;28;20425;-77
2023/07/17 04:12:05;;;;;;;5.90;3.33;;;20.20;71.00;;;;;;5015532;28;20186;-78
2023/07/17 04:14:32;;;;;;;8.17;3.33;;;20.10;71.00;;;;;;5015773;28;20582;-78
2023/07/17 04:16:58;;;;;;;5.73;4.17;;;19.90;71.80;;;;;;5022327;28;20433;-78
2023/07/17 04:19:24;;;;;;;5.87;3.70;;;19.90;72.00;;;;;;5026746;28;20471;-79
2023/07/17 04:21:49;;;;;;;7.37;3.97;;;19.80;72.10;;;;;;5029772;28;20214;-76
2023/07/17 04:24:15;;;;;;;10.70;3.67;;;19.80;72.30;;;;;;5030498;28;20181;-78
2023/07/17 04:26:40;;;;;;;5.10;3.53;;;19.70;72.40;;;;;;5028350;28;20644;-77
2023/07/17 04:29:10;;;;;;;10.53;3.47;;;19.70;72.60;;;;;;5019852;28;20332;-77
2023/07/17 04:31:36;;;;;;;7.03;3.97;;;19.70;72.30;;;;;;5018492;28;20214;-78
2023/07/17 04:34:02;;;;;;;10.33;3.70;;;19.70;72.40;;;;;;5019672;28;20979;-77
2023/07/17 04:36:28;;;;;;;7.43;3.60;;;19.60;72.70;;;;;;5021571;28;20506;-77
2023/07/17 04:38:53;;;;;;;5.90;3.23;;;19.50;73.50;;;;;;5025131;28;20182;-78
2023/07/17 04:41:19;;;;;;;11.53;3.90;;;19.40;73.60;;;;;;5024982;28;20319;-78
2023/07/17 04:43:45;;;;;;;7.17;3.93;;;19.40;73.90;;;;;;5018297;28;20193;-78
2023/07/17 04:46:10;;;;;;;9.97;4.30;;;19.40;74.20;;;;;;5016289;28;20557;-77
2023/07/17 04:48:36;;;;;;;7.03;3.80;;;19.40;74.20;;;;;;5017652;28;20196;-78
2023/07/17 04:51:02;;;;;;;5.50;3.60;;;19.40;74.00;;;;;;5012895;28;20220;-77
2023/07/17 04:53:27;;;;;;;8.63;4.50;;;19.50;74.20;;;;;;5016053;28;20179;-77
2023/07/17 04:55:53;;;;;;;7.20;4.30;;;19.50;74.00;;;;;;5017286;28;20221;-79
2023/07/17 04:58:19;;;;;;;6.67;3.87;;;19.60;73.70;;;;;;5016923;28;20186;-78
2023/07/17 05:00:46;;;;;;;9.37;3.80;;;19.70;73.30;;;;;;5011064;28;20218;-77
2023/07/17 05:03:16;;;;;;;8.13;4.30;;;19.90;73.20;;;;;;5009343;28;20479;-79
2023/07/17 05:05:47;;;;;;;8.53;3.90;;;20.00;72.90;;;;;;5016426;28;20424;-79
2023/07/17 05:08:12;;;;;;;7.67;3.70;;;20.20;72.40;;;;;;5011306;28;20989;-79
2023/07/17 05:10:38;;;;;;;7.20;3.80;;;20.30;71.40;;;;;;5010868;28;20470;-78
2023/07/17 05:13:04;;;;;;;6.57;3.97;;;20.50;70.20;;;;;;5016933;28;20197;-78
2023/07/17 05:15:29;;;;;;;8.87;4.27;;;20.50;70.10;;;;;;5016646;28;20221;-78
2023/07/17 05:17:55;;;;;;;7.27;3.83;;;20.50;69.90;;;;;;5021116;28;20244;-78
2023/07/17 05:20:20;;;;;;;12.73;4.40;;;20.50;70.20;;;;;;5009865;28;20595;-78
2023/07/17 05:22:47;;;;;;;8.47;4.20;;;20.60;70.20;;;;;;5018198;28;20214;-78
2023/07/17 05:25:13;;;;;;;10.10;4.20;;;20.70;70.20;;;;;;5023860;28;20191;-79
2023/07/17 05:27:39;;;;;;;5.77;3.70;;;20.70;70.20;;;;;;5023688;28;20465;-78
2023/07/17 05:30:06;;;;;;;10.80;3.80;;;20.90;69.40;;;;;;5018978;28;20990;-77
2023/07/17 05:32:32;;;;;;;10.33;3.87;;;21.10;68.60;;;;;;5022137;28;20265;-77
2023/07/17 05:34:58;;;;;;;9.80;4.30;;;21.20;67.70;;;;;;5018555;28;20576;-77
2023/07/17 05:37:24;;;;;;;11.10;4.13;;;21.30;66.90;;;;;;5026068;28;20524;-77
2023/07/17 05:39:49;;;;;;;9.27;3.70;;;21.40;67.00;;;;;;5021502;28;20231;-78
2023/07/17 05:42:15;;;;;;;13.67;4.33;;;21.50;66.70;;;;;;5019535;28;20494;-77
2023/07/17 05:44:41;;;;;;;8.83;3.97;;;21.50;66.30;;;;;;5015596;28;20203;-77
2023/07/17 05:47:06;;;;;;;6.90;4.00;;;21.40;66.10;;;;;;5015448;28;20315;-78
2023/07/17 05:49:32;;;;;;;8.00;4.13;;;21.30;66.40;;;;;;5012471;28;20193;-78
2023/07/17 05:51:58;;;;;;;12.20;4.63;;;21.20;66.60;;;;;;5010737;28;20281;-77
2023/07/17 05:54:23;;;;;;;8.33;4.47;;;21.10;66.60;;;;;;5017057;28;20223;-77
2023/07/17 05:56:49;;;;;;;10.47;4.57;;;21.10;66.60;;;;;;5013234;28;20195;-77
2023/07/17 05:59:14;;;;;;;8.63;4.23;;;21.10;66.70;;;;;;5006577;28;20198;-76
2023/07/17 06:01:40;;;;;;;9.33;4.63;;;21.10;67.00;;;;;;5010410;28;20254;-77
2023/07/17 06:04:06;;;;;;;10.03;4.90;;;21.00;67.30;;;;;;5011941;28;20186;-77
2023/07/17 06:06:32;;;;;;;7.30;4.33;;;21.00;67.30;;;;;;5013323;28;20214;-76
2023/07/17 06:09:01;;;;;;;9.43;4.50;;;21.10;67.30;;;;;;5012936;28;20469;-76
2023/07/17 06:11:27;;;;;;;11.17;4.17;;;21.10;67.20;;;;;;5009564;28;20282;-76
2023/07/17 06:13:52;;;;;;;9.20;4.60;;;21.10;67.00;;;;;;5012342;28;21151;-76
2023/07/17 06:16:18;;;;;;;8.23;3.70;;;21.10;66.90;;;;;;5013820;28;20483;-76
2023/07/17 06:18:44;;;;;;;11.50;4.37;;;21.20;66.70;;;;;;5015420;28;20218;-77
2023/07/17 06:21:10;;;;;;;6.07;3.70;;;21.10;67.00;;;;;;5016233;28;20342;-76
2023/07/17 06:23:36;;;;;;;8.93;3.97;;;21.10;67.00;;;;;;5021529;28;20206;-77
2023/07/17 06:26:03;;;;;;;10.40;3.83;;;21.10;67.00;;;;;;5022973;28;20438;-77
2023/07/17 06:28:29;;;;;;;5.43;3.30;;;21.20;66.40;;;;;;5016688;28;20247;-78
2023/07/17 06:30:55;;;;;;;7.50;3.93;;;21.20;66.40;;;;;;5012270;28;20474;-77
2023/07/17 06:33:21;;;;;;;7.67;3.67;;;21.30;66.40;;;;;;5014887;28;20435;-78
2023/07/17 06:35:48;;;;;;;9.87;4.20;;;21.40;66.00;;;;;;5015047;28;20239;-78
2023/07/17 06:38:13;;;;;;;11.77;4.77;;;21.50;65.60;;;;;;5013772;28;20446;-76
2023/07/17 06:40:39;;;;;;;11.27;3.70;;;21.60;65.40;;;;;;5010303;28;20874;-78
2023/07/17 06:43:04;;;;;;;8.60;3.53;;;21.70;65.10;;;;;;5011864;28;20263;-76
2023/07/17 06:45:30;;;;;;;8.00;4.17;;;21.80;64.70;;;;;;5018110;28;20278;-77
2023/07/17 06:47:56;;;;;;;6.30;3.70;;;21.90;64.70;;;;;;5015094;28;20687;-76
2023/07/17 06:50:21;;;;;;;6.57;4.27;;;22.00;64.50;;;;;;5010810;28;20694;-77
2023/07/17 06:52:47;;;;;;;6.67;3.77;;;22.10;64.40;;;;;;5012124;28;20216;-77
2023/07/17 06:55:13;;;;;;;10.00;3.60;;;22.20;63.50;;;;;;5012736;28;20220;-77
2023/07/17 06:57:38;;;;;;;7.77;4.37;;;22.20;63.40;;;;;;5013032;28;20253;-77
2023/07/17 07:00:05;;;;;;;8.37;3.83;;;22.20;63.40;;;;;;5010527;28;20973;-77
2023/07/17 07:02:31;;;;;;;10.50;3.90;;;22.30;63.10;;;;;;5013869;28;20223;-77
2023/07/17 07:04:57;;;;;;;5.87;3.43;;;22.30;62.90;;;;;;5015340;28;20437;-78
2023/07/17 07:07:22;;;;;;;10.90;4.20;;;22.40;62.90;;;;;;5016887;28;20438;-76
2023/07/17 07:09:48;;;;;;;9.70;4.00;;;22.40;61.70;;;;;;5014881;28;20375;-77
2023/07/17 07:12:15;;;;;;;7.40;4.70;;;22.50;61.00;;;;;;5018525;28;20181;-77
2023/07/17 07:14:41;;;;;;;10.13;4.63;;;22.50;61.50;;;;;;5018741;28;20547;-76
2023/07/17 07:17:08;;;;;;;6.47;4.20;;;22.50;60.40;;;;;;5019931;28;20435;-77
2023/07/17 07:19:33;;;;;;;8.87;4.63;;;22.60;60.30;;;;;;5019202;28;20443;-77
2023/07/17 07:21:59;;;;;;;11.07;4.30;;;22.70;60.60;;;;;;5015223;28;20446;-77
2023/07/17 07:24:25;;;;;;;7.83;5.00;;;22.80;60.30;;;;;;5015738;28;20224;-77
2023/07/17 07:26:50;;;;;;;12.20;5.20;;;22.90;58.40;;;;;;5022304;28;20878;-79
2023/07/17 07:29:16;;;;;;;14.47;5.67;;;22.90;55.80;;;;;;5025848;28;20229;-79
2023/07/17 07:31:41;;;;;;;11.97;5.43;;;22.90;55.20;;;;;;5020799;28;20304;-79
2023/07/17 07:34:07;;;;;;;9.07;5.20;;;23.00;55.70;;;;;;5023557;28;20225;-78
2023/07/17 07:36:33;;;;;;;11.67;6.37;;;23.00;55.80;;;;;;5020611;28;20191;-78
2023/07/17 07:38:59;;;;;;;8.13;4.40;;;23.00;55.70;;;;;;5013839;28;20558;-79
2023/07/17 07:41:25;;;;;;;14.93;5.57;;;22.90;54.80;;;;;;5012966;28;20297;-78
2023/07/17 07:43:50;;;;;;;11.93;5.13;;;23.10;56.20;;;;;;5017991;28;21036;-78
2023/07/17 07:46:16;;;;;;;10.40;4.83;;;23.30;56.60;;;;;;5019544;28;20191;-78
2023/07/17 07:48:41;;;;;;;12.13;4.93;;;23.40;56.40;;;;;;5018938;28;20688;-78
2023/07/17 07:51:07;;;;;;;9.17;4.93;;;23.30;56.00;;;;;;5014626;28;20204;-78
2023/07/17 07:53:33;;;;;;;10.20;5.13;;;23.30;55.00;;;;;;5018318;28;20183;-76
2023/07/17 07:56:00;;;;;;;7.63;4.90;;;23.40;53.30;;;;;;5018190;28;20227;-77
2023/07/17 07:58:30;;;;;;;8.43;4.83;;;23.40;54.00;;;;;;5019827;28;20497;-77
2023/07/17 08:00:56;;;;;;;7.97;4.53;;;23.20;52.80;;;;;;5015638;28;20558;-76
2023/07/17 08:03:22;;;;;;;9.37;4.23;;;23.40;54.10;;;;;;5017967;28;20975;-78
2023/07/17 08:05:47;;;;;;;11.67;5.10;;;23.60;54.90;;;;;;5018059;28;20188;-77
2023/07/17 08:08:13;;;;;;;7.93;5.33;;;23.60;55.60;;;;;;5019625;28;20195;-78
2023/07/17 08:10:39;;;;;;;7.93;4.33;;;23.60;55.60;;;;;;5019914;28;20208;-79
2023/07/17 08:13:26;;;;;;;11.30;4.67;;;23.60;56.00;;;;;;5027652;28;20195;-78
2023/07/17 08:15:52;;;;;;;7.93;4.63;;;23.60;55.30;;;;;;5016960;28;20495;-77
2023/07/17 08:18:18;;;;;;;13.23;5.60;;;23.70;55.40;;;;;;5017621;28;20445;-77
2023/07/17 08:20:43;;;;;;;12.33;5.47;;;23.70;55.60;;;;;;5016217;28;20219;-79
2023/07/17 08:23:09;;;;;;;8.93;4.80;;;23.70;53.40;;;;;;5015670;28;20185;-78
2023/07/17 08:25:35;;;;;;;9.10;5.13;;;23.80;51.60;;;;;;5016237;28;20247;-79
2023/07/17 08:28:00;;;;;;;9.40;5.20;;;23.70;51.80;;;;;;5017562;28;20215;-79
2023/07/17 08:30:26;;;;;;;9.23;4.53;;;23.70;51.60;;;;;;5014767;28;20568;-77
2023/07/17 08:32:52;;;;;;;8.20;5.20;;;23.80;50.60;;;;;;5015450;28;20204;-78
2023/07/17 08:35:17;;;;;;;8.80;4.70;;;23.90;49.90;;;;;;5015933;28;20223;-79
2023/07/17 08:37:43;;;;;;;8.60;4.93;;;24.10;49.70;;;;;;5016070;28;20199;-77
2023/07/17 08:40:11;;;;;;;9.87;4.63;;;24.10;49.30;;;;;;5012438;28;20546;-79
2023/07/17 08:42:37;;;;;;;9.40;4.97;;;24.10;47.70;;;;;;5012352;28;20193;-78
2023/07/17 08:45:04;;;;;;;9.50;4.73;;;24.20;46.90;;;;;;5016304;28;20493;-78
2023/07/17 08:47:31;;;;;;;10.40;4.80;;;24.30;45.80;;;;;;5016537;28;20445;-77
2023/07/17 08:49:58;;;;;;;8.40;4.50;;;24.50;45.00;;;;;;5005394;28;20805;-77
2023/07/17 08:52:27;;;;;;;10.50;4.63;;;24.80;44.20;;;;;;5012411;28;20439;-78
2023/07/17 08:54:53;;;;;;;7.50;3.83;;;24.70;43.80;;;;;;5015985;28;20487;-78
2023/07/17 08:57:20;;;;;;;8.63;4.00;;;24.70;44.50;;;;;;5012849;28;20491;-77
2023/07/17 08:59:46;;;;;;;10.80;6.17;;;25.00;44.30;;;;;;5014477;28;20279;-79
2023/07/17 09:02:11;;;;;;;15.63;5.03;;;25.10;44.90;;;;;;5021007;28;20517;-78
2023/07/17 09:04:37;;;;;;;9.60;4.97;;;25.00;45.40;;;;;;5023404;28;20491;-78
2023/07/17 09:07:03;;;;;;;8.37;4.40;;;25.00;45.50;;;;;;5019844;28;20199;-78
2023/07/17 09:09:29;;;;;;;9.10;5.30;;;24.90;45.90;;;;;;5017953;28;20668;-78
2023/07/17 09:12:11;;;;;;;9.50;5.13;;;25.10;45.90;;;;;;5005855;28;20460;-79
2023/07/17 09:14:38;;;;;;;8.53;4.93;;;25.00;46.50;;;;;;5015541;28;20204;-77
2023/07/17 09:17:07;;;;;;;7.67;4.73;;;25.20;46.90;;;;;;5014884;28;20902;-78
2023/07/17 09:19:34;;;;;;;7.17;4.47;;;25.40;46.70;;;;;;5015975;28;20516;-77
2023/07/17 09:22:04;;;;;;;9.60;4.70;;;25.60;46.30;;;;;;5017175;28;20477;-78
2023/07/17 09:24:33;;;;;;;11.80;5.17;;;25.60;45.70;;;;;;5014090;28;20514;-79
2023/07/17 09:26:59;;;;;;;9.97;4.70;;;25.50;46.60;;;;;;5014492;28;20438;-77
2023/07/17 09:29:25;;;;;;;12.43;6.07;;;25.20;47.90;;;;;;5012044;28;20464;-78
2023/07/17 09:31:50;;;;;;;10.93;5.27;;;24.90;48.20;;;;;;5010331;28;20304;-77
2023/07/17 09:34:16;;;;;;;7.30;4.40;;;25.10;48.70;;;;;;5016096;28;20230;-77
2023/07/17 09:36:43;;;;;;;9.50;5.00;;;25.40;47.70;;;;;;5016309;28;20687;-77
2023/07/17 09:39:10;;;;;;;9.47;5.13;;;25.50;47.40;;;;;;5018559;28;20438;-78
2023/07/17 09:41:35;;;;;;;16.47;5.47;;;25.40;47.30;;;;;;5012989;28;20478;-77
2023/07/17 09:44:03;;;;;;;12.83;5.87;;;25.10;47.70;;;;;;5013877;28;20453;-78
2023/07/17 09:46:30;;;;;;;10.10;5.30;;;24.90;48.50;;;;;;5014886;28;20182;-78
2023/07/17 09:48:57;;;;;;;11.80;5.60;;;25.10;48.20;;;;;;5014463;28;20467;-78
2023/07/17 09:51:23;;;;;;;9.67;5.67;;;25.00;48.50;;;;;;5010581;28;20461;-77
2023/07/17 09:53:49;;;;;;;11.40;5.30;;;25.10;48.90;;;;;;5014122;28;20855;-78
2023/07/17 09:56:18;;;;;;;12.47;5.33;;;25.30;48.60;;;;;;5017838;28;20490;-78
2023/07/17 09:58:48;;;;;;;9.60;5.33;;;25.40;48.10;;;;;;5019263;28;20434;-78
2023/07/17 10:01:18;;;;;;;8.60;5.30;;;25.70;47.80;;;;;;5012004;28;20550;-77
2023/07/17 10:03:48;;;;;;;8.87;4.50;;;25.60;47.10;;;;;;5016347;28;20446;-77
2023/07/17 10:06:15;;;;;;;11.33;5.40;;;25.30;47.10;;;;;;5015342;28;20442;-77
2023/07/17 10:08:44;;;;;;;32.40;20.57;;;25.40;47.80;;;;;;5014844;28;20508;-76
2023/07/17 10:11:10;;;;;;;13.77;6.07;;;25.50;47.50;;;;;;5013881;28;20473;-78
2023/07/17 10:13:36;;;;;;;10.63;5.80;;;25.60;47.70;;;;;;5016520;28;20991;-78
2023/07/17 10:16:02;;;;;;;11.47;5.43;;;25.60;48.10;;;;;;5022130;28;20516;-81
2023/07/17 10:18:30;;;;;;;13.30;5.63;;;25.60;47.70;;;;;;5022927;28;20197;-78
2023/07/17 10:20:56;;;;;;;10.00;4.60;;;26.20;47.10;;;;;;5024791;28;20469;-79
2023/07/17 10:23:26;;;;;;;7.70;4.33;;;26.50;44.90;;;;;;5015330;28;20433;-77
2023/07/17 10:26:09;;;;;;;11.47;5.40;;;26.80;44.50;;;;;;5012364;28;20537;-81
2023/07/17 10:28:37;;;;;;;10.27;5.47;;;27.00;45.30;;;;;;5015500;28;20946;-80
2023/07/17 10:31:20;;;;;;;10.73;6.20;;;26.90;44.10;;;;;;5011790;28;20498;-79
2023/07/17 10:33:55;;;;;;;7.83;4.83;;;26.50;44.50;;;;;;5017450;28;20627;-79
2023/07/17 10:36:44;;;;;;;14.07;5.87;;;26.70;43.80;;;;;;5014247;28;21039;-78
2023/07/17 10:39:17;;;;;;;9.27;4.90;;;26.20;44.30;;;;;;5014002;28;20446;-81
2023/07/17 10:41:43;;;;;;;9.70;4.30;;;26.10;44.90;;;;;;5013393;28;20517;-78
2023/07/17 10:44:18;;;;;;;7.97;5.43;;;26.20;44.90;;;;;;5009700;28;20434;-77
2023/07/17 10:46:44;;;;;;;9.43;5.30;;;26.10;45.30;;;;;;5016538;28;20188;-79
2023/07/17 10:49:11;;;;;;;9.40;5.30;;;25.90;45.70;;;;;;5011856;28;20436;-77
2023/07/17 10:51:43;;;;;;;12.23;5.57;;;26.00;45.40;;;;;;5010406;28;20474;-79
2023/07/17 10:54:08;;;;;;;8.90;5.10;;;25.80;45.70;;;;;;5010889;28;20498;-79
2023/07/17 10:56:34;;;;;;;7.50;4.70;;;25.90;46.10;;;;;;5012875;28;20443;-77
2023/07/17 10:59:00;;;;;;;9.23;5.50;;;25.90;46.10;;;;;;5011490;28;20523;-78
2023/07/17 11:01:26;;;;;;;8.80;5.40;;;26.00;45.00;;;;;;5011473;28;20218;-83
2023/07/17 11:03:53;;;;;;;12.10;5.73;;;26.00;45.70;;;;;;5039614;22;20315;-79
2023/07/17 11:06:23;;;;;;;8.33;5.57;;;25.90;45.80;;;;;;5058518;28;20226;-83
2023/07/17 11:08:49;;;;;;;9.03;5.17;;;26.10;44.90;;;;;;5061756;28;20442;-81
2023/07/17 11:11:15;;;;;;;8.10;5.00;;;25.90;45.30;;;;;;5058567;28;20616;-80
2023/07/17 11:13:48;;;;;;;10.03;5.30;;;25.90;45.70;;;;;;5049606;28;20434;-81
2023/07/17 11:16:14;;;;;;;6.60;4.40;;;26.00;44.90;;;;;;5045148;28;20495;-80
2023/07/17 11:18:45;;;;;;;8.13;4.87;;;26.00;44.90;;;;;;5049332;28;20429;-78
2023/07/17 11:21:12;;;;;;;8.73;5.50;;;26.00;45.70;;;;;;5041570;28;20213;-79
2023/07/17 11:23:49;;;;;;;9.50;5.90;;;26.50;44.60;;;;;;5045351;28;20435;-80
2023/07/17 11:26:20;;;;;;;9.07;5.13;;;27.10;42.70;;;;;;5045565;28;20529;-79
2023/07/17 11:28:50;;;;;;;8.00;4.77;;;27.30;42.40;;;;;;5041199;28;20669;-79
2023/07/17 11:31:22;;;;;;;8.03;4.83;;;27.70;41.80;;;;;;5047707;28;20516;-80
2023/07/17 11:33:58;;;;;;;10.57;5.67;;;27.30;42.00;;;;;;5045347;28;20438;-85
2023/07/17 11:36:28;;;;;;;10.27;5.20;;;27.00;42.40;;;;;;5044124;28;20498;-80
2023/07/17 11:39:09;;;;;;;13.23;5.90;;;26.60;44.20;;;;;;5043659;28;20435;-80
2023/07/17 11:41:42;;;;;;;9.93;4.70;;;26.80;43.80;;;;;;5049115;28;20478;-79
2023/07/17 11:44:07;;;;;;;10.10;5.40;;;27.50;42.60;;;;;;5045128;28;20431;-79
2023/07/17 11:46:33;;;;;;;11.07;5.90;;;28.00;41.90;;;;;;5045638;28;20435;-79
2023/07/17 11:48:59;;;;;;;9.20;5.13;;;28.20;41.20;;;;;;5040658;28;20196;-79
2023/07/17 11:51:26;;;;;;;7.50;4.87;;;28.10;40.70;;;;;;5048583;28;20932;-80
2023/07/17 11:53:54;;;;;;;8.80;4.90;;;27.70;41.20;;;;;;5041017;28;20235;-78
2023/07/17 11:56:21;;;;;;;9.30;6.03;;;27.70;42.30;;;;;;5043465;28;20491;-79
2023/07/17 11:58:52;;;;;;;12.30;5.50;;;27.80;42.00;;;;;;5045587;28;20923;-80
2023/07/17 12:01:18;;;;;;;9.07;5.20;;;27.40;42.80;;;;;;5039637;28;20545;-80
2023/07/17 12:03:44;;;;;;;8.43;5.33;;;27.40;42.80;;;;;;5038532;28;20481;-82
2023/07/17 12:06:10;;;;;;;10.10;5.23;;;27.40;43.20;;;;;;5047644;28;20187;-78
2023/07/17 12:08:37;;;;;;;10.17;5.03;;;27.30;43.40;;;;;;5036817;28;20199;-77
2023/07/17 12:11:03;;;;;;;10.83;5.10;;;27.30;43.20;;;;;;5041145;28;20459;-79
2023/07/17 12:13:29;;;;;;;9.00;5.00;;;27.00;43.80;;;;;;5040090;28;20829;-79
2023/07/17 12:15:54;;;;;;;7.63;5.00;;;26.90;44.20;;;;;;5042552;28;20478;-80
2023/07/17 12:18:20;;;;;;;12.37;5.70;;;26.80;44.90;;;;;;5039032;28;20192;-81
2023/07/17 12:20:46;;;;;;;8.73;5.37;;;26.70;44.60;;;;;;5049006;28;20226;-79
2023/07/17 12:23:13;;;;;;;11.37;5.03;;;26.80;45.30;;;;;;5053766;28;20653;-79
2023/07/17 12:25:41;;;;;;;8.67;5.30;;;27.00;44.70;;;;;;5052254;28;20269;-79
2023/07/17 12:28:07;;;;;;;9.00;5.30;;;27.30;44.60;;;;;;5043353;28;21038;-77
2023/07/17 12:30:33;;;;;;;8.47;5.50;;;27.50;43.50;;;;;;5050294;28;20472;-77
2023/07/17 12:32:58;;;;;;;8.77;5.50;;;27.20;44.10;;;;;;5041348;28;20188;-79
2023/07/17 12:35:24;;;;;;;10.37;5.70;;;26.90;44.30;;;;;;5043466;28;20226;-80
2023/07/17 12:37:50;;;;;;;7.47;4.90;;;26.90;45.00;;;;;;5036793;28;20257;-79
2023/07/17 12:40:15;;;;;;;11.27;5.43;;;27.20;44.30;;;;;;5048419;28;20229;-78